<?xml version="1.0" encoding="utf-8"?>
<gpx xmlns:xsi="http://www.w3.org/2001/XMLSchema-instance" xmlns:xsd="http://www.w3.org/2001/XMLSchema" version="1.1" creator="Shapelink.com" xmlns="http://www.topografix.com/GPX/1/1" xmlns:gpxtpx="http://www.garmin.com/xmlschemas/TrackPointExtension/v1">
  <metadata>
    <name>Löpning 5.07 km, 2019-04-24</name>
    <desc></desc>
    <author><name>Marian Moron</name></author> 
    <time>2019-04-24T21:58:47Z</time>
  </metadata>
  <trk>
    <name>Löpning 5.07 km, 2019-04-24</name>
    <trkseg>
      <trkpt lat="51.229837188724" lon="4.457198790387">
        <ele>12.4</ele>
        <time>2019-04-24T21:58:47Z</time>
      </trkpt>
      <trkpt lat="51.22981740744" lon="4.456945824645">
        <ele>12</ele>
        <time>2019-04-24T21:58:54Z</time>
      </trkpt>
      <trkpt lat="51.229853365791" lon="4.456898131634">
        <ele>12</ele>
        <time>2019-04-24T21:58:56Z</time>
      </trkpt>
      <trkpt lat="51.230030642976" lon="4.456817581575">
        <ele>13.2</ele>
        <time>2019-04-24T21:59:03Z</time>
      </trkpt>
      <trkpt lat="51.230206830514" lon="4.456730158358">
        <ele>15.6</ele>
        <time>2019-04-24T21:59:11Z</time>
      </trkpt>
      <trkpt lat="51.23038905302" lon="4.456628485911">
        <ele>16.4</ele>
        <time>2019-04-24T21:59:20Z</time>
      </trkpt>
      <trkpt lat="51.230570688793" lon="4.456500997212">
        <ele>17.4</ele>
        <time>2019-04-24T21:59:30Z</time>
      </trkpt>
      <trkpt lat="51.230741176639" lon="4.456292790816">
        <ele>19.6</ele>
        <time>2019-04-24T21:59:40Z</time>
      </trkpt>
      <trkpt lat="51.230914849607" lon="4.456168654877">
        <ele>22</ele>
        <time>2019-04-24T21:59:47Z</time>
      </trkpt>
      <trkpt lat="51.231077877562" lon="4.45603513121">
        <ele>24.8</ele>
        <time>2019-04-24T21:59:54Z</time>
      </trkpt>
      <trkpt lat="51.231282898836" lon="4.456107550826">
        <ele>25</ele>
        <time>2019-04-24T22:00:02Z</time>
      </trkpt>
      <trkpt lat="51.231432767208" lon="4.456273596265">
        <ele>25</ele>
        <time>2019-04-24T22:00:08Z</time>
      </trkpt>
      <trkpt lat="51.231623958347" lon="4.456410137416">
        <ele>27</ele>
        <time>2019-04-24T22:00:15Z</time>
      </trkpt>
      <trkpt lat="51.231800145885" lon="4.45654307435">
        <ele>29.6</ele>
        <time>2019-04-24T22:00:22Z</time>
      </trkpt>
      <trkpt lat="51.231977925984" lon="4.456640136752">
        <ele>34.4</ele>
        <time>2019-04-24T22:00:30Z</time>
      </trkpt>
      <trkpt lat="51.232153778246" lon="4.456751951298">
        <ele>38.4</ele>
        <time>2019-04-24T22:00:38Z</time>
      </trkpt>
      <trkpt lat="51.232338766779" lon="4.456848259329">
        <ele>41.2</ele>
        <time>2019-04-24T22:00:47Z</time>
      </trkpt>
      <trkpt lat="51.23248955716" lon="4.457006761058">
        <ele>42.2</ele>
        <time>2019-04-24T22:00:52Z</time>
      </trkpt>
      <trkpt lat="51.232600868792" lon="4.45725553585">
        <ele>43.2</ele>
        <time>2019-04-24T22:00:57Z</time>
      </trkpt>
      <trkpt lat="51.232640347541" lon="4.457458210192">
        <ele>40.4</ele>
        <time>2019-04-24T22:01:02Z</time>
      </trkpt>
      <trkpt lat="51.2327125157" lon="4.457725928078">
        <ele>36.8</ele>
        <time>2019-04-24T22:01:10Z</time>
      </trkpt>
      <trkpt lat="51.232775799045" lon="4.458029604315">
        <ele>33.2</ele>
        <time>2019-04-24T22:01:18Z</time>
      </trkpt>
      <trkpt lat="51.232817540907" lon="4.458315678562">
        <ele>31.2</ele>
        <time>2019-04-24T22:01:25Z</time>
      </trkpt>
      <trkpt lat="51.23286841904" lon="4.45859077252">
        <ele>28.8</ele>
        <time>2019-04-24T22:01:33Z</time>
      </trkpt>
      <trkpt lat="51.232945113425" lon="4.458878690785">
        <ele>28.4</ele>
        <time>2019-04-24T22:01:41Z</time>
      </trkpt>
      <trkpt lat="51.233000685422" lon="4.459175326226">
        <ele>29</ele>
        <time>2019-04-24T22:01:49Z</time>
      </trkpt>
      <trkpt lat="51.233024238561" lon="4.459472716038">
        <ele>28.8</ele>
        <time>2019-04-24T22:01:57Z</time>
      </trkpt>
      <trkpt lat="51.23305365903" lon="4.459788210754">
        <ele>26.6</ele>
        <time>2019-04-24T22:02:06Z</time>
      </trkpt>
      <trkpt lat="51.233061454197" lon="4.460110830085">
        <ele>21.8</ele>
        <time>2019-04-24T22:02:15Z</time>
      </trkpt>
      <trkpt lat="51.233097077272" lon="4.460403023119">
        <ele>20.6</ele>
        <time>2019-04-24T22:02:22Z</time>
      </trkpt>
      <trkpt lat="51.233168407241" lon="4.460689684099">
        <ele>22</ele>
        <time>2019-04-24T22:02:30Z</time>
      </trkpt>
      <trkpt lat="51.233258428847" lon="4.46097374669">
        <ele>27</ele>
        <time>2019-04-24T22:02:38Z</time>
      </trkpt>
      <trkpt lat="51.233377619465" lon="4.461265017715">
        <ele>31.4</ele>
        <time>2019-04-24T22:02:46Z</time>
      </trkpt>
      <trkpt lat="51.233468479261" lon="4.461539189664">
        <ele>36.2</ele>
        <time>2019-04-24T22:02:54Z</time>
      </trkpt>
      <trkpt lat="51.233534444814" lon="4.461841943892">
        <ele>40</ele>
        <time>2019-04-24T22:03:03Z</time>
      </trkpt>
      <trkpt lat="51.233578785065" lon="4.462131035623">
        <ele>41.8</ele>
        <time>2019-04-24T22:03:11Z</time>
      </trkpt>
      <trkpt lat="51.233556656849" lon="4.462453906411">
        <ele>35.8</ele>
        <time>2019-04-24T22:03:19Z</time>
      </trkpt>
      <trkpt lat="51.233588675707" lon="4.462763533797">
        <ele>33.4</ele>
        <time>2019-04-24T22:03:27Z</time>
      </trkpt>
      <trkpt lat="51.233626645714" lon="4.463043573076">
        <ele>33.4</ele>
        <time>2019-04-24T22:03:35Z</time>
      </trkpt>
      <trkpt lat="51.233658496934" lon="4.463336101386">
        <ele>32.4</ele>
        <time>2019-04-24T22:03:43Z</time>
      </trkpt>
      <trkpt lat="51.233702166633" lon="4.463643549478">
        <ele>32.2</ele>
        <time>2019-04-24T22:03:51Z</time>
      </trkpt>
      <trkpt lat="51.233646762274" lon="4.463918475798">
        <ele>23.4</ele>
        <time>2019-04-24T22:03:58Z</time>
      </trkpt>
      <trkpt lat="51.233538468126" lon="4.464094579517">
        <ele>20.4</ele>
        <time>2019-04-24T22:04:04Z</time>
      </trkpt>
      <trkpt lat="51.2336261428" lon="4.464370679303">
        <ele>10.4</ele>
        <time>2019-04-24T22:04:16Z</time>
      </trkpt>
      <trkpt lat="51.233635949623" lon="4.464403536351">
        <ele>10.6</ele>
        <time>2019-04-24T22:04:17Z</time>
      </trkpt>
      <trkpt lat="51.2337434894" lon="4.464678295033">
        <ele>22.4</ele>
        <time>2019-04-24T22:04:25Z</time>
      </trkpt>
      <trkpt lat="51.233870391366" lon="4.464916257174">
        <ele>32.6</ele>
        <time>2019-04-24T22:04:32Z</time>
      </trkpt>
      <trkpt lat="51.233999891721" lon="4.465155225143">
        <ele>44</ele>
        <time>2019-04-24T22:04:39Z</time>
      </trkpt>
      <trkpt lat="51.23410055834" lon="4.465436018793">
        <ele>53.2</ele>
        <time>2019-04-24T22:04:47Z</time>
      </trkpt>
      <trkpt lat="51.234175660164" lon="4.465874224525">
        <ele>56.8</ele>
        <time>2019-04-24T22:04:59Z</time>
      </trkpt>
      <trkpt lat="51.234219665139" lon="4.466158957668">
        <ele>54.8</ele>
        <time>2019-04-24T22:05:07Z</time>
      </trkpt>
      <trkpt lat="51.234273812213" lon="4.466453916729">
        <ele>54.8</ele>
        <time>2019-04-24T22:05:16Z</time>
      </trkpt>
      <trkpt lat="51.234338101386" lon="4.466740577709">
        <ele>56.4</ele>
        <time>2019-04-24T22:05:24Z</time>
      </trkpt>
      <trkpt lat="51.234390907356" lon="4.467019275884">
        <ele>58.6</ele>
        <time>2019-04-24T22:05:32Z</time>
      </trkpt>
      <trkpt lat="51.234441366394" lon="4.467295208032">
        <ele>60</ele>
        <time>2019-04-24T22:05:40Z</time>
      </trkpt>
      <trkpt lat="51.234473971985" lon="4.46759125674">
        <ele>57.8</ele>
        <time>2019-04-24T22:05:48Z</time>
      </trkpt>
      <trkpt lat="51.234462907877" lon="4.4678963579">
        <ele>51.6</ele>
        <time>2019-04-24T22:05:56Z</time>
      </trkpt>
      <trkpt lat="51.234477827659" lon="4.468212858444">
        <ele>47.4</ele>
        <time>2019-04-24T22:06:04Z</time>
      </trkpt>
      <trkpt lat="51.234535495131" lon="4.468493484456">
        <ele>46.6</ele>
        <time>2019-04-24T22:06:12Z</time>
      </trkpt>
      <trkpt lat="51.23460933967" lon="4.468775451572">
        <ele>47.6</ele>
        <time>2019-04-24T22:06:20Z</time>
      </trkpt>
      <trkpt lat="51.234688632444" lon="4.469067560787">
        <ele>50.4</ele>
        <time>2019-04-24T22:06:28Z</time>
      </trkpt>
      <trkpt lat="51.234706904986" lon="4.469354054129">
        <ele>51.8</ele>
        <time>2019-04-24T22:06:36Z</time>
      </trkpt>
      <trkpt lat="51.234752251065" lon="4.469639960738">
        <ele>52.8</ele>
        <time>2019-04-24T22:06:44Z</time>
      </trkpt>
      <trkpt lat="51.234794076746" lon="4.469939781301">
        <ele>50.8</ele>
        <time>2019-04-24T22:06:52Z</time>
      </trkpt>
      <trkpt lat="51.23475853749" lon="4.470276398405">
        <ele>41.6</ele>
        <time>2019-04-24T22:07:00Z</time>
      </trkpt>
      <trkpt lat="51.234762225526" lon="4.470605052704">
        <ele>37.6</ele>
        <time>2019-04-24T22:07:08Z</time>
      </trkpt>
      <trkpt lat="51.234790640167" lon="4.470917362298">
        <ele>32.6</ele>
        <time>2019-04-24T22:07:16Z</time>
      </trkpt>
      <trkpt lat="51.234837997902" lon="4.47121139935">
        <ele>32.2</ele>
        <time>2019-04-24T22:07:24Z</time>
      </trkpt>
      <trkpt lat="51.234888289302" lon="4.471512058103">
        <ele>34.8</ele>
        <time>2019-04-24T22:07:32Z</time>
      </trkpt>
      <trkpt lat="51.234956601787" lon="4.471785727138">
        <ele>37.8</ele>
        <time>2019-04-24T22:07:39Z</time>
      </trkpt>
      <trkpt lat="51.235032206525" lon="4.472068280987">
        <ele>37</ele>
        <time>2019-04-24T22:07:47Z</time>
      </trkpt>
      <trkpt lat="51.235031368335" lon="4.472357121261">
        <ele>33.6</ele>
        <time>2019-04-24T22:07:55Z</time>
      </trkpt>
      <trkpt lat="51.235031871249" lon="4.472671945425">
        <ele>27.2</ele>
        <time>2019-04-24T22:08:04Z</time>
      </trkpt>
      <trkpt lat="51.235061040261" lon="4.472998839525">
        <ele>20</ele>
        <time>2019-04-24T22:08:13Z</time>
      </trkpt>
      <trkpt lat="51.235122563407" lon="4.473301090839">
        <ele>19.2</ele>
        <time>2019-04-24T22:08:22Z</time>
      </trkpt>
      <trkpt lat="51.235120551751" lon="4.473483648621">
        <ele>21.8</ele>
        <time>2019-04-24T22:08:27Z</time>
      </trkpt>
      <trkpt lat="51.2349337192" lon="4.473429501547">
        <ele>21.4</ele>
        <time>2019-04-24T22:08:36Z</time>
      </trkpt>
      <trkpt lat="51.234766500295" lon="4.473379461604">
        <ele>23</ele>
        <time>2019-04-24T22:08:44Z</time>
      </trkpt>
      <trkpt lat="51.234655272482" lon="4.473604347981">
        <ele>21</ele>
        <time>2019-04-24T22:08:54Z</time>
      </trkpt>
      <trkpt lat="51.234480174591" lon="4.473734686526">
        <ele>18.2</ele>
        <time>2019-04-24T22:09:04Z</time>
      </trkpt>
      <trkpt lat="51.234304489967" lon="4.473888410572">
        <ele>16.2</ele>
        <time>2019-04-24T22:09:14Z</time>
      </trkpt>
      <trkpt lat="51.234145150048" lon="4.474061580626">
        <ele>14</ele>
        <time>2019-04-24T22:09:24Z</time>
      </trkpt>
      <trkpt lat="51.233980780989" lon="4.474235672689">
        <ele>17</ele>
        <time>2019-04-24T22:09:34Z</time>
      </trkpt>
      <trkpt lat="51.233817082482" lon="4.474411189675">
        <ele>17.4</ele>
        <time>2019-04-24T22:09:43Z</time>
      </trkpt>
      <trkpt lat="51.233659418943" lon="4.474614199293">
        <ele>16.2</ele>
        <time>2019-04-24T22:09:52Z</time>
      </trkpt>
      <trkpt lat="51.233516172272" lon="4.474827434829">
        <ele>17.4</ele>
        <time>2019-04-24T22:10:02Z</time>
      </trkpt>
      <trkpt lat="51.233354485421" lon="4.475022146366">
        <ele>17</ele>
        <time>2019-04-24T22:10:11Z</time>
      </trkpt>
      <trkpt lat="51.233209478551" lon="4.475213421324">
        <ele>17</ele>
        <time>2019-04-24T22:10:20Z</time>
      </trkpt>
      <trkpt lat="51.233063130577" lon="4.475423639376">
        <ele>20.2</ele>
        <time>2019-04-24T22:10:31Z</time>
      </trkpt>
      <trkpt lat="51.232919464811" lon="4.475603598769">
        <ele>23</ele>
        <time>2019-04-24T22:10:39Z</time>
      </trkpt>
      <trkpt lat="51.232748809327" lon="4.47571164146">
        <ele>25.6</ele>
        <time>2019-04-24T22:10:47Z</time>
      </trkpt>
      <trkpt lat="51.232579411128" lon="4.475530927696">
        <ele>22.6</ele>
        <time>2019-04-24T22:11:00Z</time>
      </trkpt>
      <trkpt lat="51.232468099496" lon="4.47526153343">
        <ele>20.8</ele>
        <time>2019-04-24T22:11:12Z</time>
      </trkpt>
      <trkpt lat="51.232384196677" lon="4.475047627342">
        <ele>23.8</ele>
        <time>2019-04-24T22:11:22Z</time>
      </trkpt>
      <trkpt lat="51.232284619705" lon="4.474802959681">
        <ele>24.6</ele>
        <time>2019-04-24T22:11:33Z</time>
      </trkpt>
      <trkpt lat="51.232152520961" lon="4.474581426064">
        <ele>27.8</ele>
        <time>2019-04-24T22:11:42Z</time>
      </trkpt>
      <trkpt lat="51.231975579052" lon="4.474301638242">
        <ele>21.2</ele>
        <time>2019-04-24T22:11:52Z</time>
      </trkpt>
      <trkpt lat="51.231843899403" lon="4.474093515665">
        <ele>21.6</ele>
        <time>2019-04-24T22:12:03Z</time>
      </trkpt>
      <trkpt lat="51.231718589998" lon="4.473878352292">
        <ele>24.4</ele>
        <time>2019-04-24T22:12:13Z</time>
      </trkpt>
      <trkpt lat="51.231597806819" lon="4.473636953572">
        <ele>21.6</ele>
        <time>2019-04-24T22:12:26Z</time>
      </trkpt>
      <trkpt lat="51.231496804924" lon="4.473366469659">
        <ele>16.8</ele>
        <time>2019-04-24T22:12:35Z</time>
      </trkpt>
      <trkpt lat="51.231423798575" lon="4.473079976317">
        <ele>13</ele>
        <time>2019-04-24T22:12:44Z</time>
      </trkpt>
      <trkpt lat="51.231331430037" lon="4.472897250897">
        <ele>14.8</ele>
        <time>2019-04-24T22:12:51Z</time>
      </trkpt>
      <trkpt lat="51.23130351831" lon="4.472877804889">
        <ele>15.6</ele>
        <time>2019-04-24T22:12:53Z</time>
      </trkpt>
      <trkpt lat="51.231186004072" lon="4.472633388685">
        <ele>18</ele>
        <time>2019-04-24T22:13:02Z</time>
      </trkpt>
      <trkpt lat="51.230985676662" lon="4.472712765278">
        <ele>13.2</ele>
        <time>2019-04-24T22:13:12Z</time>
      </trkpt>
      <trkpt lat="51.230839663964" lon="4.472892305576">
        <ele>10.6</ele>
        <time>2019-04-24T22:13:21Z</time>
      </trkpt>
      <trkpt lat="51.230706643211" lon="4.473118868333">
        <ele>10.8</ele>
        <time>2019-04-24T22:13:29Z</time>
      </trkpt>
      <trkpt lat="51.230612179198" lon="4.473389268427">
        <ele>13.6</ele>
        <time>2019-04-24T22:13:38Z</time>
      </trkpt>
      <trkpt lat="51.230622991849" lon="4.473688837533">
        <ele>13.6</ele>
        <time>2019-04-24T22:13:47Z</time>
      </trkpt>
      <trkpt lat="51.23064553916" lon="4.473982958404">
        <ele>12.2</ele>
        <time>2019-04-24T22:13:56Z</time>
      </trkpt>
      <trkpt lat="51.230649394834" lon="4.474281773139">
        <ele>8.4</ele>
        <time>2019-04-24T22:14:06Z</time>
      </trkpt>
      <trkpt lat="51.230760287371" lon="4.474553765794">
        <ele>14</ele>
        <time>2019-04-24T22:14:15Z</time>
      </trkpt>
      <trkpt lat="51.230872940107" lon="4.474784770958">
        <ele>14.6</ele>
        <time>2019-04-24T22:14:22Z</time>
      </trkpt>
      <trkpt lat="51.230987688318" lon="4.475039580718">
        <ele>16.4</ele>
        <time>2019-04-24T22:14:29Z</time>
      </trkpt>
      <trkpt lat="51.231097742665" lon="4.475288942243">
        <ele>17.2</ele>
        <time>2019-04-24T22:14:37Z</time>
      </trkpt>
      <trkpt lat="51.231204276614" lon="4.475526317651">
        <ele>17.2</ele>
        <time>2019-04-24T22:14:45Z</time>
      </trkpt>
      <trkpt lat="51.231315420608" lon="4.475786491827">
        <ele>17</ele>
        <time>2019-04-24T22:14:54Z</time>
      </trkpt>
      <trkpt lat="51.231416925417" lon="4.476060160862">
        <ele>18.4</ele>
        <time>2019-04-24T22:15:03Z</time>
      </trkpt>
      <trkpt lat="51.231527734135" lon="4.476302481591">
        <ele>17.6</ele>
        <time>2019-04-24T22:15:10Z</time>
      </trkpt>
      <trkpt lat="51.231635860645" lon="4.476549496184">
        <ele>18</ele>
        <time>2019-04-24T22:15:18Z</time>
      </trkpt>
      <trkpt lat="51.231738874196" lon="4.476785614307">
        <ele>18.2</ele>
        <time>2019-04-24T22:15:25Z</time>
      </trkpt>
      <trkpt lat="51.231849096181" lon="4.477034556737">
        <ele>20.4</ele>
        <time>2019-04-24T22:15:32Z</time>
      </trkpt>
      <trkpt lat="51.231941213262" lon="4.477290204687">
        <ele>22.6</ele>
        <time>2019-04-24T22:15:39Z</time>
      </trkpt>
      <trkpt lat="51.232038024207" lon="4.477547612836">
        <ele>18.6</ele>
        <time>2019-04-24T22:15:48Z</time>
      </trkpt>
      <trkpt lat="51.23213751736" lon="4.477789933565">
        <ele>19.4</ele>
        <time>2019-04-24T22:15:58Z</time>
      </trkpt>
      <trkpt lat="51.232250086277" lon="4.478047928447">
        <ele>17.2</ele>
        <time>2019-04-24T22:16:07Z</time>
      </trkpt>
      <trkpt lat="51.232351171991" lon="4.478304498406">
        <ele>13.6</ele>
        <time>2019-04-24T22:16:15Z</time>
      </trkpt>
      <trkpt lat="51.23238645979" lon="4.478614041973">
        <ele>13.8</ele>
        <time>2019-04-24T22:16:24Z</time>
      </trkpt>
      <trkpt lat="51.232312112337" lon="4.478904558627">
        <ele>15.4</ele>
        <time>2019-04-24T22:16:32Z</time>
      </trkpt>
      <trkpt lat="51.232188479312" lon="4.479128020081">
        <ele>19.8</ele>
        <time>2019-04-24T22:16:40Z</time>
      </trkpt>
      <trkpt lat="51.232030815773" lon="4.47930244742">
        <ele>26.4</ele>
        <time>2019-04-24T22:16:50Z</time>
      </trkpt>
      <trkpt lat="51.231838032073" lon="4.479327006387">
        <ele>30.2</ele>
        <time>2019-04-24T22:16:59Z</time>
      </trkpt>
      <trkpt lat="51.231655893386" lon="4.47931669665">
        <ele>38.6</ele>
        <time>2019-04-24T22:17:10Z</time>
      </trkpt>
      <trkpt lat="51.231457074718" lon="4.479203205724">
        <ele>46.4</ele>
        <time>2019-04-24T22:17:20Z</time>
      </trkpt>
      <trkpt lat="51.231247694856" lon="4.47905015223">
        <ele>55.8</ele>
        <time>2019-04-24T22:17:26Z</time>
      </trkpt>
      <trkpt lat="51.231057174269" lon="4.478950994353">
        <ele>62.4</ele>
        <time>2019-04-24T22:17:32Z</time>
      </trkpt>
      <trkpt lat="51.230859864343" lon="4.478965997954">
        <ele>62.8</ele>
        <time>2019-04-24T22:17:39Z</time>
      </trkpt>
      <trkpt lat="51.230677977113" lon="4.478982091202">
        <ele>59.6</ele>
        <time>2019-04-24T22:17:47Z</time>
      </trkpt>
      <trkpt lat="51.230480667187" lon="4.478969015438">
        <ele>60.4</ele>
        <time>2019-04-24T22:17:56Z</time>
      </trkpt>
      <trkpt lat="51.230300791613" lon="4.479048056755">
        <ele>57.6</ele>
        <time>2019-04-24T22:18:05Z</time>
      </trkpt>
      <trkpt lat="51.230120580763" lon="4.479144364786">
        <ele>48.4</ele>
        <time>2019-04-24T22:18:13Z</time>
      </trkpt>
      <trkpt lat="51.229934083488" lon="4.479216700583">
        <ele>44.2</ele>
        <time>2019-04-24T22:18:22Z</time>
      </trkpt>
      <trkpt lat="51.229740796874" lon="4.479230530718">
        <ele>46.6</ele>
        <time>2019-04-24T22:18:31Z</time>
      </trkpt>
      <trkpt lat="51.229513479746" lon="4.479199517688">
        <ele>46.8</ele>
        <time>2019-04-24T22:18:41Z</time>
      </trkpt>
      <trkpt lat="51.229332514525" lon="4.479235643677">
        <ele>43.8</ele>
        <time>2019-04-24T22:18:48Z</time>
      </trkpt>
      <trkpt lat="51.229151130209" lon="4.479355337209">
        <ele>40.6</ele>
        <time>2019-04-24T22:18:55Z</time>
      </trkpt>
      <trkpt lat="51.228965974038" lon="4.479353744648">
        <ele>35.4</ele>
        <time>2019-04-24T22:19:04Z</time>
      </trkpt>
      <trkpt lat="51.228812501449" lon="4.479202283715">
        <ele>33.4</ele>
        <time>2019-04-24T22:19:13Z</time>
      </trkpt>
      <trkpt lat="51.22885767989" lon="4.478900535315">
        <ele>35.4</ele>
        <time>2019-04-24T22:19:23Z</time>
      </trkpt>
      <trkpt lat="51.228907468376" lon="4.478625692814">
        <ele>34.4</ele>
        <time>2019-04-24T22:19:32Z</time>
      </trkpt>
      <trkpt lat="51.228818368779" lon="4.478372391796">
        <ele>32</ele>
        <time>2019-04-24T22:19:40Z</time>
      </trkpt>
      <trkpt lat="51.228801940255" lon="4.478247417667">
        <ele>31</ele>
        <time>2019-04-24T22:19:44Z</time>
      </trkpt>
      <trkpt lat="51.228963710925" lon="4.478070727215">
        <ele>30.2</ele>
        <time>2019-04-24T22:19:53Z</time>
      </trkpt>
      <trkpt lat="51.229009140823" lon="4.477785574977">
        <ele>29.2</ele>
        <time>2019-04-24T22:20:01Z</time>
      </trkpt>
      <trkpt lat="51.229038477473" lon="4.477486592604">
        <ele>27.6</ele>
        <time>2019-04-24T22:20:09Z</time>
      </trkpt>
      <trkpt lat="51.229067059752" lon="4.477199763986">
        <ele>23.8</ele>
        <time>2019-04-24T22:20:17Z</time>
      </trkpt>
      <trkpt lat="51.229038561292" lon="4.476896674482">
        <ele>26.6</ele>
        <time>2019-04-24T22:20:26Z</time>
      </trkpt>
      <trkpt lat="51.229007296805" lon="4.476675476141">
        <ele>29</ele>
        <time>2019-04-24T22:20:33Z</time>
      </trkpt>
      <trkpt lat="51.228909144756" lon="4.476395269224">
        <ele>27.2</ele>
        <time>2019-04-24T22:20:42Z</time>
      </trkpt>
      <trkpt lat="51.228806215024" lon="4.476118415067">
        <ele>24.4</ele>
        <time>2019-04-24T22:20:50Z</time>
      </trkpt>
      <trkpt lat="51.228694065202" lon="4.475844662213">
        <ele>23.6</ele>
        <time>2019-04-24T22:20:58Z</time>
      </trkpt>
      <trkpt lat="51.22858610633" lon="4.475585829141">
        <ele>19.2</ele>
        <time>2019-04-24T22:21:07Z</time>
      </trkpt>
      <trkpt lat="51.228490133575" lon="4.47534199967">
        <ele>17.4</ele>
        <time>2019-04-24T22:21:15Z</time>
      </trkpt>
      <trkpt lat="51.228386365653" lon="4.475097918742">
        <ele>18.4</ele>
        <time>2019-04-24T22:21:23Z</time>
      </trkpt>
      <trkpt lat="51.228294248572" lon="4.474844198629">
        <ele>19</ele>
        <time>2019-04-24T22:21:31Z</time>
      </trkpt>
      <trkpt lat="51.228200287473" lon="4.474570110499">
        <ele>17.6</ele>
        <time>2019-04-24T22:21:40Z</time>
      </trkpt>
      <trkpt lat="51.228092663877" lon="4.474335668756">
        <ele>16.8</ele>
        <time>2019-04-24T22:21:48Z</time>
      </trkpt>
      <trkpt lat="51.228009180153" lon="4.474084463213">
        <ele>16</ele>
        <time>2019-04-24T22:21:56Z</time>
      </trkpt>
      <trkpt lat="51.227915302873" lon="4.473817499698">
        <ele>18.8</ele>
        <time>2019-04-24T22:22:04Z</time>
      </trkpt>
      <trkpt lat="51.22781580972" lon="4.47357593334">
        <ele>13</ele>
        <time>2019-04-24T22:22:11Z</time>
      </trkpt>
      <trkpt lat="51.227716316567" lon="4.4733194472">
        <ele>13.4</ele>
        <time>2019-04-24T22:22:19Z</time>
      </trkpt>
      <trkpt lat="51.227618248337" lon="4.473054998255">
        <ele>22.4</ele>
        <time>2019-04-24T22:22:28Z</time>
      </trkpt>
      <trkpt lat="51.227501739927" lon="4.472784514342">
        <ele>25</ele>
        <time>2019-04-24T22:22:36Z</time>
      </trkpt>
      <trkpt lat="51.227397972005" lon="4.472515036257">
        <ele>25.2</ele>
        <time>2019-04-24T22:22:44Z</time>
      </trkpt>
      <trkpt lat="51.227302418345" lon="4.472267854026">
        <ele>28.6</ele>
        <time>2019-04-24T22:22:52Z</time>
      </trkpt>
      <trkpt lat="51.227204433934" lon="4.472013798637">
        <ele>32.2</ele>
        <time>2019-04-24T22:23:01Z</time>
      </trkpt>
      <trkpt lat="51.227155316" lon="4.471822188403">
        <ele>33</ele>
        <time>2019-04-24T22:23:08Z</time>
      </trkpt>
      <trkpt lat="51.227167218298" lon="4.471517925433">
        <ele>28.6</ele>
        <time>2019-04-24T22:23:18Z</time>
      </trkpt>
      <trkpt lat="51.227104689324" lon="4.471249285538">
        <ele>28.4</ele>
        <time>2019-04-24T22:23:26Z</time>
      </trkpt>
      <trkpt lat="51.227040735427" lon="4.470956757228">
        <ele>26</ele>
        <time>2019-04-24T22:23:34Z</time>
      </trkpt>
      <trkpt lat="51.226974686055" lon="4.470672191723">
        <ele>25.6</ele>
        <time>2019-04-24T22:23:44Z</time>
      </trkpt>
      <trkpt lat="51.22693235746" lon="4.470372874074">
        <ele>26.8</ele>
        <time>2019-04-24T22:23:53Z</time>
      </trkpt>
      <trkpt lat="51.226907547036" lon="4.470066599448">
        <ele>31.4</ele>
        <time>2019-04-24T22:24:02Z</time>
      </trkpt>
      <trkpt lat="51.226894387453" lon="4.469770299283">
        <ele>33.2</ele>
        <time>2019-04-24T22:24:10Z</time>
      </trkpt>
      <trkpt lat="51.226879300033" lon="4.469463521743">
        <ele>31.6</ele>
        <time>2019-04-24T22:24:19Z</time>
      </trkpt>
      <trkpt lat="51.226876869282" lon="4.469150457778">
        <ele>29.6</ele>
        <time>2019-04-24T22:24:28Z</time>
      </trkpt>
      <trkpt lat="51.226862033319" lon="4.468858851477">
        <ele>28.8</ele>
        <time>2019-04-24T22:24:36Z</time>
      </trkpt>
      <trkpt lat="51.226836468524" lon="4.46857110085">
        <ele>26.2</ele>
        <time>2019-04-24T22:24:43Z</time>
      </trkpt>
      <trkpt lat="51.226807383331" lon="4.468269603907">
        <ele>22.4</ele>
        <time>2019-04-24T22:24:51Z</time>
      </trkpt>
      <trkpt lat="51.226801935096" lon="4.46797011862">
        <ele>22.8</ele>
        <time>2019-04-24T22:25:00Z</time>
      </trkpt>
      <trkpt lat="51.226817944525" lon="4.467661748519">
        <ele>28.6</ele>
        <time>2019-04-24T22:25:10Z</time>
      </trkpt>
      <trkpt lat="51.226822303113" lon="4.467419343971">
        <ele>31.4</ele>
        <time>2019-04-24T22:25:18Z</time>
      </trkpt>
      <trkpt lat="51.226847364994" lon="4.467103011065">
        <ele>32.4</ele>
        <time>2019-04-24T22:25:27Z</time>
      </trkpt>
      <trkpt lat="51.226884496811" lon="4.466818529379">
        <ele>31.8</ele>
        <time>2019-04-24T22:25:35Z</time>
      </trkpt>
      <trkpt lat="51.226936883686" lon="4.466578974677">
        <ele>32.2</ele>
        <time>2019-04-24T22:25:42Z</time>
      </trkpt>
      <trkpt lat="51.2271050246" lon="4.46646975852">
        <ele>30.2</ele>
        <time>2019-04-24T22:25:50Z</time>
      </trkpt>
      <trkpt lat="51.227203679563" lon="4.466301449968">
        <ele>31.2</ele>
        <time>2019-04-24T22:25:57Z</time>
      </trkpt>
      <trkpt lat="51.227226897426" lon="4.465984614148">
        <ele>35</ele>
        <time>2019-04-24T22:26:06Z</time>
      </trkpt>
      <trkpt lat="51.227189849428" lon="4.465672136916">
        <ele>43.6</ele>
        <time>2019-04-24T22:26:15Z</time>
      </trkpt>
      <trkpt lat="51.227110975749" lon="4.465369131231">
        <ele>36.2</ele>
        <time>2019-04-24T22:26:22Z</time>
      </trkpt>
      <trkpt lat="51.227040819246" lon="4.465102000078">
        <ele>24.8</ele>
        <time>2019-04-24T22:26:28Z</time>
      </trkpt>
      <trkpt lat="51.22699270714" lon="4.464823218084">
        <ele>17.4</ele>
        <time>2019-04-24T22:26:35Z</time>
      </trkpt>
      <trkpt lat="51.226981978308" lon="4.464504538246">
        <ele>14.8</ele>
        <time>2019-04-24T22:26:43Z</time>
      </trkpt>
      <trkpt lat="51.226934117659" lon="4.46420496914">
        <ele>8.4</ele>
        <time>2019-04-24T22:26:50Z</time>
      </trkpt>
      <trkpt lat="51.226881898422" lon="4.463900035618">
        <ele>5</ele>
        <time>2019-04-24T22:26:58Z</time>
      </trkpt>
      <trkpt lat="51.226850382478" lon="4.463595102096">
        <ele>3.8</ele>
        <time>2019-04-24T22:27:06Z</time>
      </trkpt>
      <trkpt lat="51.226809311168" lon="4.463290671488">
        <ele>2.2</ele>
        <time>2019-04-24T22:27:15Z</time>
      </trkpt>
      <trkpt lat="51.226746614556" lon="4.462986157061">
        <ele>4.4</ele>
        <time>2019-04-24T22:27:25Z</time>
      </trkpt>
      <trkpt lat="51.226715685345" lon="4.462698406434">
        <ele>4.4</ele>
        <time>2019-04-24T22:27:33Z</time>
      </trkpt>
      <trkpt lat="51.22665994571" lon="4.462384839555">
        <ele>3.6</ele>
        <time>2019-04-24T22:27:41Z</time>
      </trkpt>
      <trkpt lat="51.226644271557" lon="4.462094490539">
        <ele>3.6</ele>
        <time>2019-04-24T22:27:48Z</time>
      </trkpt>
      <trkpt lat="51.226578892737" lon="4.461812355785">
        <ele>1.2</ele>
        <time>2019-04-24T22:27:56Z</time>
      </trkpt>
      <trkpt lat="51.226497253031" lon="4.461539357302">
        <ele>0</ele>
        <time>2019-04-24T22:28:04Z</time>
      </trkpt>
      <trkpt lat="51.226451823133" lon="4.461238530911">
        <ele>1.2</ele>
        <time>2019-04-24T22:28:12Z</time>
      </trkpt>
      <trkpt lat="51.226369345237" lon="4.460942817479">
        <ele>0.4</ele>
        <time>2019-04-24T22:28:20Z</time>
      </trkpt>
      <trkpt lat="51.226313689421" lon="4.460666214779">
        <ele>1.6</ele>
        <time>2019-04-24T22:28:28Z</time>
      </trkpt>
      <trkpt lat="51.226244035832" lon="4.460395311771">
        <ele>1</ele>
        <time>2019-04-24T22:28:35Z</time>
      </trkpt>
      <trkpt lat="51.22616122266" lon="4.460131617197">
        <ele>0</ele>
        <time>2019-04-24T22:28:42Z</time>
      </trkpt>
      <trkpt lat="51.22609165289" lon="4.459848728072">
        <ele>0</ele>
        <time>2019-04-24T22:28:50Z</time>
      </trkpt>
      <trkpt lat="51.226033566323" lon="4.459534742098">
        <ele>4.6</ele>
        <time>2019-04-24T22:29:00Z</time>
      </trkpt>
      <trkpt lat="51.22594916059" lon="4.459266688936">
        <ele>5.2</ele>
        <time>2019-04-24T22:29:07Z</time>
      </trkpt>
      <trkpt lat="51.22596005706" lon="4.458923869226">
        <ele>15.8</ele>
        <time>2019-04-24T22:29:17Z</time>
      </trkpt>
      <trkpt lat="51.225924517804" lon="4.458804762427">
        <ele>13.4</ele>
        <time>2019-04-24T22:29:20Z</time>
      </trkpt>
      <trkpt lat="51.225926361822" lon="4.458752962285">
        <ele>11.6</ele>
        <time>2019-04-24T22:29:22Z</time>
      </trkpt>
      <trkpt lat="51.226084528275" lon="4.45860837451">
        <ele>7.4</ele>
        <time>2019-04-24T22:29:33Z</time>
      </trkpt>
      <trkpt lat="51.226239006692" lon="4.458440568872">
        <ele>5</ele>
        <time>2019-04-24T22:29:42Z</time>
      </trkpt>
      <trkpt lat="51.226398598068" lon="4.458289359396">
        <ele>6</ele>
        <time>2019-04-24T22:29:50Z</time>
      </trkpt>
      <trkpt lat="51.226557183616" lon="4.458136389721">
        <ele>9.8</ele>
        <time>2019-04-24T22:29:58Z</time>
      </trkpt>
      <trkpt lat="51.226722977598" lon="4.457991299032">
        <ele>12.8</ele>
        <time>2019-04-24T22:30:06Z</time>
      </trkpt>
      <trkpt lat="51.226870499038" lon="4.457827349068">
        <ele>15</ele>
        <time>2019-04-24T22:30:14Z</time>
      </trkpt>
      <trkpt lat="51.227045010196" lon="4.457736237815">
        <ele>16.6</ele>
        <time>2019-04-24T22:30:22Z</time>
      </trkpt>
      <trkpt lat="51.22721482749" lon="4.457633810997">
        <ele>20</ele>
        <time>2019-04-24T22:30:30Z</time>
      </trkpt>
      <trkpt lat="51.227388919553" lon="4.457521325899">
        <ele>22</ele>
        <time>2019-04-24T22:30:38Z</time>
      </trkpt>
      <trkpt lat="51.22755429444" lon="4.457392747553">
        <ele>25</ele>
        <time>2019-04-24T22:30:46Z</time>
      </trkpt>
      <trkpt lat="51.227745066484" lon="4.457299289368">
        <ele>24.8</ele>
        <time>2019-04-24T22:30:55Z</time>
      </trkpt>
      <trkpt lat="51.227934748881" lon="4.457211530875">
        <ele>24.2</ele>
        <time>2019-04-24T22:31:04Z</time>
      </trkpt>
      <trkpt lat="51.228120659423" lon="4.457110109885">
        <ele>26</ele>
        <time>2019-04-24T22:31:13Z</time>
      </trkpt>
      <trkpt lat="51.228299110074" lon="4.457173560868">
        <ele>23.8</ele>
        <time>2019-04-24T22:31:20Z</time>
      </trkpt>
      <trkpt lat="51.228325596878" lon="4.457209519219">
        <ele>21.8</ele>
        <time>2019-04-24T22:31:21Z</time>
      </trkpt>
      <trkpt lat="51.228381755608" lon="4.457487043928">
        <ele>17.8</ele>
        <time>2019-04-24T22:31:27Z</time>
      </trkpt>
      <trkpt lat="51.228442608202" lon="4.457774962193">
        <ele>12.8</ele>
        <time>2019-04-24T22:31:34Z</time>
      </trkpt>
      <trkpt lat="51.228577640611" lon="4.458140161576">
        <ele>8.8</ele>
        <time>2019-04-24T22:31:46Z</time>
      </trkpt>
      <trkpt lat="51.228757600004" lon="4.458090456909">
        <ele>4.2</ele>
        <time>2019-04-24T22:31:55Z</time>
      </trkpt>
      <trkpt lat="51.228948372048" lon="4.458017869655">
        <ele>0.6</ele>
        <time>2019-04-24T22:32:04Z</time>
      </trkpt>
      <trkpt lat="51.228984749494" lon="4.458005464443">
        <ele>0</ele>
        <time>2019-04-24T22:32:06Z</time>
      </trkpt>
    </trkseg>
  </trk>
</gpx>